Time;durP1;ratioP1;P1;durP2;ratioP2;P2;SDS_P1;SDS_P2;PMS_P1;PMS_P2;Temp;Humidity;BMP_temperature;BMP_pressure;BME280_temperature;BME280_humidity;BME280_pressure;Samples;Min_cycle;Max_cycle;Signal;HPM_P1;HPM_P2
2022/02/13 00:03:29;;;;;;;69.10;64.00;;;;;;;8.55;100.00;101333.36;2012358;71;32871;-74
2022/02/13 00:09:13;;;;;;;70.80;65.27;;;;;;;8.59;100.00;101324.82;2001756;71;33363;-73
2022/02/13 00:14:58;;;;;;;69.90;64.90;;;;;;;8.58;100.00;101321.22;2014248;71;32831;-70
2022/02/13 00:20:42;;;;;;;69.20;64.13;;;;;;;8.53;100.00;101316.16;2005165;71;32878;-75
2022/02/13 00:26:26;;;;;;;68.67;63.40;;;;;;;8.58;100.00;101308.75;2005056;71;32907;-71
2022/02/13 00:32:11;;;;;;;68.30;63.10;;;;;;;8.54;100.00;101302.06;2008957;71;32904;-74
2022/02/13 00:37:57;;;;;;;67.50;61.87;;;;;;;8.54;100.00;101296.53;2014130;71;32914;-76
2022/02/13 00:43:41;;;;;;;67.13;61.97;;;;;;;8.57;100.00;101290.46;2003718;71;32841;-71
2022/02/13 00:49:25;;;;;;;66.83;61.80;;;;;;;8.51;100.00;101280.45;2003928;71;32759;-74
2022/02/13 00:55:11;;;;;;;67.90;62.40;;;;;;;8.58;100.00;101278.84;2009068;71;33431;-74
2022/02/13 01:00:55;;;;;;;67.20;62.10;;;;;;;8.58;100.00;101258.08;2007759;71;32760;-75
2022/02/13 01:06:39;;;;;;;68.03;63.00;;;;;;;8.64;100.00;101250.92;1996241;71;33286;-74
2022/02/13 01:12:23;;;;;;;65.80;61.30;;;;;;;8.61;100.00;101243.69;2002079;71;33256;-74
2022/02/13 01:18:08;;;;;;;67.67;62.67;;;;;;;8.65;100.00;101250.37;2016306;71;33320;-72
2022/02/13 01:23:52;;;;;;;68.50;63.37;;;;;;;8.70;100.00;101239.35;2003501;71;32956;-72
2022/02/13 01:29:36;;;;;;;67.00;62.03;;;;;;;8.67;100.00;101226.04;2003658;71;33327;-75
2022/02/13 01:35:22;;;;;;;67.57;62.37;;;;;;;8.62;100.00;101222.67;1991128;71;32806;-75
2022/02/13 01:41:07;;;;;;;67.50;62.47;;;;;;;8.56;100.00;101217.34;2010761;71;33447;-74
2022/02/13 01:46:52;;;;;;;70.93;65.67;;;;;;;8.54;100.00;101197.41;1990957;71;32774;-72
2022/02/13 01:52:37;;;;;;;72.50;66.97;;;;;;;8.51;100.00;101190.47;2007079;71;32835;-73
2022/02/13 01:58:24;;;;;;;71.90;66.60;;;;;;;8.48;100.00;101185.44;2016152;71;32913;-74
2022/02/13 02:04:08;;;;;;;68.97;63.70;;;;;;;8.47;100.00;101170.50;2000365;71;32844;-72
2022/02/13 02:09:55;;;;;;;69.33;64.13;;;;;;;8.45;100.00;101174.90;2008995;71;32839;-74
2022/02/13 02:15:39;;;;;;;71.93;66.47;;;;;;;8.41;100.00;101157.70;2009323;71;32772;-74
2022/02/13 02:21:23;;;;;;;69.33;63.57;;;;;;;8.44;100.00;101143.31;2016099;71;32855;-74
2022/02/13 02:27:07;;;;;;;73.37;68.00;;;;;;;8.51;100.00;101141.19;2014431;71;33023;-75
2022/02/13 02:32:52;;;;;;;70.80;65.17;;;;;;;8.51;100.00;101132.33;2003310;71;33346;-75
2022/02/13 02:38:36;;;;;;;66.73;61.43;;;;;;;8.49;100.00;101134.52;2005596;71;32981;-75
2022/02/13 02:44:21;;;;;;;68.47;63.13;;;;;;;8.52;100.00;101130.38;2009606;71;32915;-72
2022/02/13 02:50:06;;;;;;;67.37;62.10;;;;;;;8.58;100.00;101120.47;2006004;71;33298;-74
2022/02/13 02:55:50;;;;;;;69.40;64.03;;;;;;;8.59;100.00;101099.99;2011199;71;32785;-72
2022/02/13 03:01:34;;;;;;;70.33;64.73;;;;;;;8.60;100.00;101086.41;2009281;71;33285;-74
2022/02/13 03:07:18;;;;;;;69.27;63.77;;;;;;;8.66;100.00;101078.98;2008767;71;32900;-72
2022/02/13 03:13:02;;;;;;;67.77;62.77;;;;;;;8.68;100.00;101073.45;2005702;71;33201;-74
2022/02/13 03:18:46;;;;;;;66.20;60.87;;;;;;;8.64;100.00;101063.20;2000029;71;33330;-71
2022/02/13 03:24:30;;;;;;;68.27;63.17;;;;;;;8.68;100.00;101050.48;2014144;71;32841;-73
2022/02/13 03:30:15;;;;;;;66.20;61.03;;;;;;;8.65;100.00;101039.38;2009420;71;32894;-74
2022/02/13 03:35:59;;;;;;;69.37;63.77;;;;;;;8.66;100.00;101024.44;2008991;71;33421;-72
2022/02/13 03:41:43;;;;;;;66.53;61.60;;;;;;;8.73;100.00;101014.48;1991057;71;32945;-74
2022/02/13 03:47:28;;;;;;;67.67;62.40;;;;;;;8.76;100.00;101004.83;2011260;71;32967;-72
2022/02/13 03:53:12;;;;;;;68.30;62.73;;;;;;;8.69;100.00;101000.91;2001871;71;32802;-74
2022/02/13 03:58:56;;;;;;;65.60;60.00;;;;;;;8.73;100.00;100992.91;1994446;71;33158;-72
2022/02/13 04:04:40;;;;;;;65.37;59.57;;;;;;;8.71;100.00;100986.80;1970795;72;33343;-74
2022/02/13 04:10:25;;;;;;;62.60;57.67;;;;;;;8.69;100.00;100989.83;1997829;71;32819;-72
2022/02/13 04:16:09;;;;;;;63.03;58.23;;;;;;;8.77;100.00;100983.77;2016328;71;33340;-72
2022/02/13 04:21:53;;;;;;;63.47;57.83;;;;;;;8.80;100.00;100966.63;2010698;71;33432;-73
2022/02/13 04:27:37;;;;;;;64.73;59.60;;;;;;;8.81;100.00;100968.85;1998508;70;32733;-72
2022/02/13 04:33:23;;;;;;;63.93;58.80;;;;;;;8.85;100.00;100966.66;2011121;71;32827;-74
2022/02/13 04:39:07;;;;;;;63.73;57.77;;;;;;;8.81;100.00;100951.69;2010709;71;32888;-74
2022/02/13 04:44:51;;;;;;;62.07;56.93;;;;;;;8.88;100.00;100939.79;2010844;71;32919;-74
2022/02/13 04:50:36;;;;;;;62.33;57.43;;;;;;;8.89;100.00;100939.24;2012661;71;32809;-72
2022/02/13 04:56:21;;;;;;;64.33;59.07;;;;;;;8.92;100.00;100917.91;1994285;71;33379;-75
2022/02/13 05:02:06;;;;;;;59.50;54.50;;;;;;;8.91;100.00;100893.53;1935808;71;39501;-72
2022/02/13 05:07:49;;;;;;;66.07;60.17;;;;;;;8.95;100.00;100881.34;2003411;71;32795;-72
2022/02/13 05:13:33;;;;;;;61.10;56.10;;;;;;;8.93;100.00;100859.48;2002098;71;33344;-71
2022/02/13 05:19:17;;;;;;;63.50;58.33;;;;;;;8.96;100.00;100849.22;2010553;71;33288;-74
2022/02/13 05:25:01;;;;;;;61.20;56.10;;;;;;;9.02;100.00;100845.37;1998044;71;33349;-71
2022/02/13 05:30:45;;;;;;;59.07;53.90;;;;;;;9.01;100.00;100831.23;2009189;71;32797;-72
2022/02/13 05:36:30;;;;;;;59.80;55.07;;;;;;;9.05;100.00;100817.10;2016178;71;32804;-74
2022/02/13 05:42:14;;;;;;;62.47;57.17;;;;;;;9.00;100.00;100803.23;2014511;71;32785;-74
2022/02/13 05:47:58;;;;;;;60.13;54.83;;;;;;;9.02;100.00;100795.50;1994305;71;33273;-75
2022/02/13 05:53:42;;;;;;;61.70;56.13;;;;;;;9.03;100.00;100797.69;2007153;71;32935;-75
2022/02/13 05:59:27;;;;;;;61.67;56.60;;;;;;;8.97;100.00;100795.48;2018040;70;33239;-74
2022/02/13 06:05:12;;;;;;;60.90;55.87;;;;;;;8.96;100.00;100780.52;2010795;71;32867;-75
2022/02/13 06:10:58;;;;;;;61.00;55.63;;;;;;;8.97;100.00;100796.87;2018029;71;33390;-72
2022/02/13 06:16:42;;;;;;;61.23;56.53;;;;;;;9.01;100.00;100793.83;2007444;71;32722;-73
2022/02/13 06:22:26;;;;;;;60.53;55.67;;;;;;;8.94;100.00;100768.90;1994646;71;32729;-74
2022/02/13 06:28:11;;;;;;;59.93;55.10;;;;;;;8.93;100.00;100740.36;1991027;71;32857;-72
2022/02/13 06:33:55;;;;;;;60.53;55.83;;;;;;;8.90;100.00;100723.47;2018136;71;33021;-72
2022/02/13 06:39:39;;;;;;;59.03;54.70;;;;;;;8.88;100.00;100722.91;2005221;71;33319;-71
2022/02/13 06:45:24;;;;;;;61.63;57.10;;;;;;;8.85;100.00;100699.38;2006036;71;32747;-72
2022/02/13 06:51:10;;;;;;;60.07;55.50;;;;;;;8.83;100.00;100685.51;2003933;71;32739;-72
2022/02/13 06:56:54;;;;;;;61.00;56.07;;;;;;;8.79;100.00;100667.23;2000135;71;32810;-72
2022/02/13 07:02:38;;;;;;;60.10;55.60;;;;;;;8.75;100.00;100661.98;1994609;71;32753;-71
2022/02/13 07:08:23;;;;;;;61.10;56.60;;;;;;;8.68;100.00;100653.94;2014516;71;32857;-72
2022/02/13 07:14:07;;;;;;;61.70;57.23;;;;;;;8.58;100.00;100644.81;2016217;71;32897;-74
2022/02/13 07:19:52;;;;;;;60.53;56.20;;;;;;;8.49;100.00;100632.08;1996615;71;33263;-75
2022/02/13 07:25:36;;;;;;;60.47;55.87;;;;;;;8.48;100.00;100626.27;1997135;71;33284;-72
2022/02/13 07:31:20;;;;;;;61.70;56.80;;;;;;;8.45;100.00;100631.53;1998554;71;33334;-76
2022/02/13 07:37:05;;;;;;;59.60;55.53;;;;;;;8.47;100.00;100614.91;1998285;71;32870;-74
2022/02/13 07:42:52;;;;;;;58.33;54.17;;;;;;;8.41;100.00;100604.97;2016401;71;33293;-72
2022/02/13 07:48:36;;;;;;;57.40;53.30;;;;;;;8.44;100.00;100600.80;2008850;71;33285;-71
2022/02/13 07:54:20;;;;;;;56.93;52.97;;;;;;;8.44;100.00;100577.27;1999708;71;32910;-74
2022/02/13 08:00:09;;;;;;;58.50;54.40;;;;;;;8.33;100.00;100570.09;2016288;71;32804;-72
2022/02/13 08:05:53;;;;;;;57.03;53.03;;;;;;;8.32;100.00;100562.89;2006312;71;32755;-75
2022/02/13 08:11:38;;;;;;;56.30;52.30;;;;;;;8.30;100.00;100533.30;2005399;71;33014;-74
2022/02/13 08:17:23;;;;;;;56.97;52.30;;;;;;;8.30;100.00;100538.25;2011329;71;32739;-74
2022/02/13 08:23:08;;;;;;;58.37;53.83;;;;;;;8.37;100.00;100532.45;1996563;71;32861;-72
2022/02/13 08:28:52;;;;;;;57.83;53.57;;;;;;;8.42;100.00;100529.14;2009155;71;33090;-74
2022/02/13 08:34:36;;;;;;;56.00;51.80;;;;;;;8.49;100.00;100514.45;1994264;71;32903;-71
2022/02/13 08:40:21;;;;;;;56.37;51.87;;;;;;;8.51;100.00;100488.72;2017873;71;32900;-71
2022/02/13 08:46:08;;;;;;;55.87;51.87;;;;;;;8.67;100.00;100509.70;1997909;71;32822;-72
2022/02/13 08:51:53;;;;;;;56.73;52.80;;;;;;;8.73;100.00;100488.34;1996802;71;33231;-72
2022/02/13 08:57:37;;;;;;;56.10;52.27;;;;;;;8.79;100.00;100477.55;2005856;71;32751;-71
2022/02/13 09:03:24;;;;;;;56.53;52.00;;;;;;;8.83;100.00;100466.17;2009170;71;33699;-72
2022/02/13 09:09:09;;;;;;;57.10;52.97;;;;;;;8.92;100.00;100448.41;2003984;71;33288;-72
2022/02/13 09:14:54;;;;;;;57.40;53.20;;;;;;;8.93;100.00;100442.59;2008745;71;32941;-72
2022/02/13 09:20:44;;;;;;;54.73;50.40;;;;;;;8.95;100.00;100441.73;2000214;71;33352;-74
2022/02/13 09:26:24;;;;;;;55.73;51.50;;;;;;;9.01;100.00;100437.84;2001967;71;32835;-75
2022/02/13 09:32:10;;;;;;;56.13;51.77;;;;;;;9.08;100.00;100422.27;2002937;70;33402;-74
2022/02/13 09:37:56;;;;;;;55.70;51.50;;;;;;;9.18;100.00;100400.61;1999576;71;32885;-73
2022/02/13 09:43:41;;;;;;;56.00;52.30;;;;;;;9.23;100.00;100395.05;2003397;71;33364;-74
2022/02/13 09:49:27;;;;;;;58.97;54.67;;;;;;;9.26;100.00;100375.89;2003959;71;32749;-72
2022/02/13 09:55:12;;;;;;;57.43;53.20;;;;;;;9.31;100.00;100363.95;2009339;71;32885;-75
2022/02/13 10:00:59;;;;;;;57.83;53.53;;;;;;;9.27;100.00;100347.08;2017226;71;32857;-76
2022/02/13 10:06:44;;;;;;;57.37;52.73;;;;;;;9.18;100.00;100325.80;1991277;71;32843;-75
2022/02/13 10:12:39;;;;;;;58.57;54.17;;;;;;;9.22;100.00;100322.72;2012865;71;33297;-72
2022/02/13 10:18:52;;;;;;;58.17;53.63;;;;;;;9.16;100.00;100305.88;2016230;71;32908;-72
2022/02/13 10:24:46;;;;;;;58.93;54.23;;;;;;;9.14;100.00;100276.52;2008666;71;32869;-75
2022/02/13 10:30:40;;;;;;;57.67;53.50;;;;;;;9.08;100.00;100273.51;1991093;71;33467;-74
2022/02/13 10:36:42;;;;;;;56.17;52.07;;;;;;;9.10;100.00;100271.84;1999811;71;33008;-72
2022/02/13 10:42:33;;;;;;;60.40;55.90;;;;;;;9.15;100.00;100257.95;2009383;71;32809;-72
2022/02/13 10:48:38;;;;;;;59.53;55.47;;;;;;;9.16;100.00;100248.50;2009183;71;32875;-71
2022/02/13 10:54:22;;;;;;;60.80;56.33;;;;;;;9.19;100.00;100247.11;2000294;71;32740;-72
2022/02/13 11:00:09;;;;;;;58.53;54.40;;;;;;;9.24;100.00;100217.39;2003659;71;33375;-72
2022/02/13 11:05:56;;;;;;;60.93;56.63;;;;;;;9.20;100.00;100193.36;1994826;71;32862;-72
2022/02/13 11:11:42;;;;;;;58.00;53.27;;;;;;;9.27;100.00;100195.21;2005806;71;33310;-73
2022/02/13 11:17:43;;;;;;;58.83;54.37;;;;;;;9.31;100.00;100186.58;1999610;71;32867;-72
2022/02/13 11:23:31;;;;;;;61.50;57.17;;;;;;;9.26;100.00;100168.05;1998424;71;33337;-74
2022/02/13 11:29:17;;;;;;;60.47;56.30;;;;;;;9.24;100.00;100141.19;2007647;71;32841;-73
2022/02/13 11:35:02;;;;;;;59.57;55.37;;;;;;;9.33;100.00;100137.21;2003437;71;32883;-74
2022/02/13 11:40:57;;;;;;;60.13;55.97;;;;;;;9.39;100.00;100102.23;2000065;71;32791;-72
2022/02/13 11:47:16;;;;;;;60.20;55.50;;;;;;;9.51;100.00;100081.01;2010804;71;32922;-73
2022/02/13 11:53:39;;;;;;;57.70;52.83;;;;;;;9.61;100.00;100062.86;2014638;71;33268;-71
2022/02/13 11:59:51;;;;;;;59.73;55.43;;;;;;;9.71;100.00;100035.56;1994347;71;32817;-74
2022/02/13 12:06:34;;;;;;;57.07;52.70;;;;;;;9.87;100.00;100023.94;2003762;71;32982;-74
2022/02/13 12:12:24;;;;;;;59.27;55.03;;;;;;;9.82;100.00;100009.31;2012466;71;32877;-71
2022/02/13 12:18:14;;;;;;;60.77;56.50;;;;;;;9.92;100.00;99989.75;2018096;71;32795;-74
2022/02/13 12:24:04;;;;;;;58.07;53.67;;;;;;;9.88;100.00;99977.03;1991118;71;32811;-74
2022/02/13 12:29:53;;;;;;;60.47;56.30;;;;;;;9.89;100.00;99954.28;2007496;71;32825;-74
2022/02/13 12:35:41;;;;;;;61.43;56.50;;;;;;;9.83;100.00;99941.08;2016210;71;33420;-74
2022/02/13 12:41:25;;;;;;;59.73;54.80;;;;;;;9.67;100.00;99911.13;1964912;72;33435;-72
2022/02/13 12:47:12;;;;;;;59.20;54.20;;;;;;;9.50;100.00;99909.70;2003336;71;33458;-71
2022/02/13 12:53:01;;;;;;;62.10;57.50;;;;;;;9.45;100.00;99902.87;1997886;71;32828;-72
2022/02/13 12:58:46;;;;;;;61.27;56.13;;;;;;;9.34;100.00;99885.30;2011052;71;33463;-73
2022/02/13 13:04:31;;;;;;;60.90;56.10;;;;;;;9.27;100.00;99877.94;1979559;71;32925;-73
2022/02/13 13:10:25;;;;;;;59.27;54.27;;;;;;;9.19;100.00;99864.77;2010904;71;32950;-74
2022/02/13 13:16:24;;;;;;;57.87;52.77;;;;;;;9.14;100.00;99853.19;2009155;71;32944;-74
2022/02/13 13:22:22;;;;;;;56.67;51.97;;;;;;;9.04;100.00;99838.09;2007181;71;32806;-73
2022/02/13 13:28:10;;;;;;;56.23;51.80;;;;;;;9.04;100.00;99822.86;1998536;71;33349;-76
2022/02/13 13:34:05;;;;;;;54.43;49.97;;;;;;;8.96;100.00;99814.68;2012533;71;32806;-72
2022/02/13 13:40:01;;;;;;;56.47;51.47;;;;;;;8.93;100.00;99805.59;2005326;71;32869;-73
2022/02/13 13:45:47;;;;;;;55.73;51.07;;;;;;;8.96;100.00;99809.70;2014261;71;33075;-74
2022/02/13 13:51:31;;;;;;;56.37;51.67;;;;;;;8.92;100.00;99785.94;1994500;71;33345;-74
2022/02/13 13:57:17;;;;;;;55.70;50.90;;;;;;;8.92;100.00;99783.73;2011252;71;34160;-72
2022/02/13 14:03:03;;;;;;;59.33;54.50;;;;;;;8.86;100.00;99760.83;1989160;71;32745;-73
2022/02/13 14:08:49;;;;;;;59.50;54.90;;;;;;;8.91;100.00;99742.75;2011263;71;32895;-72
2022/02/13 14:14:33;;;;;;;60.63;55.60;;;;;;;8.86;100.00;99727.59;2014324;71;33454;-74
2022/02/13 14:20:18;;;;;;;59.53;54.53;;;;;;;8.90;100.00;99709.25;2018078;70;33004;-73
2022/02/13 14:26:02;;;;;;;57.77;53.23;;;;;;;8.95;100.00;99695.88;2008938;71;32877;-75
2022/02/13 14:31:47;;;;;;;60.17;55.17;;;;;;;8.97;100.00;99683.40;2003655;71;33618;-72
2022/02/13 14:37:32;;;;;;;58.20;53.70;;;;;;;8.96;100.00;99662.92;1994577;70;33316;-74
2022/02/13 14:43:18;;;;;;;57.47;52.87;;;;;;;8.90;100.00;99662.77;2011307;71;32816;-73
2022/02/13 14:49:02;;;;;;;56.87;52.13;;;;;;;8.97;100.00;99634.94;1994740;71;33217;-72
2022/02/13 14:54:54;;;;;;;57.77;53.07;;;;;;;8.97;100.00;99626.63;1945451;74;33005;-74
2022/02/13 15:00:38;;;;;;;56.27;51.47;;;;;;;9.03;100.00;99619.02;2003976;71;33293;-72
2022/02/13 15:06:23;;;;;;;56.13;51.57;;;;;;;9.10;100.00;99609.21;2002100;71;32859;-73
2022/02/13 15:12:10;;;;;;;54.67;50.13;;;;;;;9.17;100.00;99595.50;2012994;71;33250;-73
2022/02/13 15:17:54;;;;;;;52.70;48.27;;;;;;;9.19;100.00;99582.19;1998335;71;32763;-74
2022/02/13 15:23:38;;;;;;;54.60;50.00;;;;;;;9.19;100.00;99571.10;2015956;71;32840;-73
2022/02/13 15:29:22;;;;;;;54.37;49.97;;;;;;;9.29;100.00;99554.25;2003527;71;32808;-73
2022/02/13 15:35:10;;;;;;;52.33;48.20;;;;;;;9.36;100.00;99534.73;2003599;70;32992;-73
2022/02/13 15:40:55;;;;;;;54.27;49.57;;;;;;;9.40;100.00;99526.61;2016355;71;32822;-73
2022/02/13 15:46:40;;;;;;;52.47;48.13;;;;;;;9.41;100.00;99510.24;2002233;71;33424;-72
2022/02/13 15:52:24;;;;;;;52.93;48.73;;;;;;;9.48;100.00;99501.76;2000269;71;32849;-73
2022/02/13 15:58:09;;;;;;;53.30;48.90;;;;;;;9.57;100.00;99492.14;2004027;71;32765;-72
2022/02/13 16:03:53;;;;;;;54.00;49.70;;;;;;;9.60;100.00;99482.63;2012676;71;33383;-74
2022/02/13 16:09:40;;;;;;;52.80;48.60;;;;;;;9.70;100.00;99460.79;2016252;71;33390;-73
2022/02/13 16:15:28;;;;;;;51.93;47.57;;;;;;;9.72;100.00;99456.30;2002131;71;33475;-72
2022/02/13 16:21:11;;;;;;;50.50;46.17;;;;;;;9.80;100.00;99458.31;2007200;71;32923;-73
2022/02/13 16:26:56;;;;;;;52.37;48.17;;;;;;;9.78;100.00;99430.09;2005183;71;32900;-74
2022/02/13 16:32:41;;;;;;;55.10;50.50;;;;;;;9.84;100.00;99427.47;2016079;71;32952;-73
2022/02/13 16:38:25;;;;;;;54.83;50.63;;;;;;;9.82;100.00;99422.22;2005207;71;32829;-74
2022/02/13 16:44:10;;;;;;;56.73;51.83;;;;;;;9.83;100.00;99408.62;2014253;71;32940;-73
2022/02/13 16:49:55;;;;;;;50.73;46.50;;;;;;;9.82;100.00;99408.36;2012694;71;33307;-74
2022/02/13 16:55:40;;;;;;;49.33;45.13;;;;;;;9.83;100.00;99397.53;2014433;71;33396;-73
2022/02/13 17:01:24;;;;;;;46.93;42.73;;;;;;;9.80;100.00;99393.16;2014206;70;32882;-74
2022/02/13 17:07:09;;;;;;;49.17;45.23;;;;;;;9.83;100.00;99393.37;2014343;71;32891;-73
2022/02/13 17:12:53;;;;;;;46.97;42.97;;;;;;;9.87;100.00;99382.45;2005785;71;32828;-73
2022/02/13 17:18:38;;;;;;;49.17;44.87;;;;;;;9.89;100.00;99383.77;2018002;71;32943;-73
2022/02/13 17:24:23;;;;;;;47.00;43.10;;;;;;;9.86;100.00;99376.66;2016343;71;33343;-72
2022/02/13 17:30:11;;;;;;;47.10;43.17;;;;;;;9.92;100.00;99387.31;2016301;70;33359;-73
2022/02/13 17:35:56;;;;;;;46.30;42.23;;;;;;;9.95;100.00;99371.42;2017907;71;32835;-74
2022/02/13 17:41:40;;;;;;;49.47;45.27;;;;;;;10.05;100.00;99379.45;2017960;71;33396;-73
2022/02/13 17:47:25;;;;;;;47.03;43.03;;;;;;;10.08;100.00;99363.33;2014390;71;33004;-73
2022/02/13 17:53:10;;;;;;;47.33;43.17;;;;;;;10.11;100.00;99374.59;2009295;71;32905;-73
2022/02/13 17:58:54;;;;;;;48.80;44.60;;;;;;;10.17;100.00;99365.61;1994759;70;33361;-72
2022/02/13 18:04:38;;;;;;;45.70;41.60;;;;;;;10.18;100.00;99363.92;1949463;72;32916;-73
2022/02/13 18:10:26;;;;;;;46.33;42.37;;;;;;;10.20;100.00;99350.53;2008892;71;32844;-73
2022/02/13 18:16:10;;;;;;;44.97;41.27;;;;;;;10.24;100.00;99354.86;1996670;71;32837;-74
2022/02/13 18:21:54;;;;;;;44.23;40.23;;;;;;;10.25;100.00;99335.70;1999874;71;33373;-74
2022/02/13 18:27:39;;;;;;;44.07;40.37;;;;;;;10.32;100.00;99342.41;2010672;71;33145;-72
2022/02/13 18:33:25;;;;;;;47.93;44.00;;;;;;;10.30;100.00;99341.11;2003564;71;32957;-74
2022/02/13 18:39:09;;;;;;;45.13;41.33;;;;;;;10.34;100.00;99331.83;2012621;71;32913;-73
2022/02/13 18:44:53;;;;;;;47.13;43.20;;;;;;;10.37;100.00;99326.19;2013213;71;33300;-74
2022/02/13 18:50:37;;;;;;;44.33;40.63;;;;;;;10.32;100.00;99320.78;2014465;71;32908;-74
2022/02/13 18:56:21;;;;;;;44.23;40.23;;;;;;;10.34;100.00;99314.36;2014203;71;32953;-72
2022/02/13 19:02:06;;;;;;;47.40;43.30;;;;;;;10.35;100.00;99302.12;1994538;71;32845;-74
2022/02/13 19:07:50;;;;;;;45.63;41.80;;;;;;;10.40;100.00;99295.01;2014331;71;32846;-74
2022/02/13 19:13:36;;;;;;;46.07;41.97;;;;;;;10.42;100.00;99289.97;1996607;71;33298;-74
2022/02/13 19:19:21;;;;;;;48.37;44.40;;;;;;;10.39;100.00;99279.52;1994668;71;32777;-71
2022/02/13 19:25:09;;;;;;;46.47;42.53;;;;;;;10.41;100.00;99286.38;2013987;71;32981;-74
2022/02/13 19:30:56;;;;;;;45.13;41.43;;;;;;;10.47;100.00;99277.33;1996241;71;32879;-73
2022/02/13 19:36:43;;;;;;;45.57;41.87;;;;;;;10.46;100.00;99280.67;2003263;71;32845;-74
2022/02/13 19:42:30;;;;;;;44.57;40.90;;;;;;;10.48;100.00;99273.42;2010615;71;32911;-74
2022/02/13 19:48:15;;;;;;;46.30;42.37;;;;;;;10.54;100.00;99275.45;2003651;71;33692;-73
2022/02/13 19:54:01;;;;;;;45.90;42.03;;;;;;;10.55;100.00;99277.09;2012738;71;32771;-73
2022/02/13 19:59:45;;;;;;;45.33;41.73;;;;;;;10.54;100.00;99273.50;2010995;71;32821;-74
2022/02/13 20:05:30;;;;;;;46.23;42.60;;;;;;;10.52;100.00;99259.71;1999412;71;32838;-74
2022/02/13 20:11:15;;;;;;;45.90;42.30;;;;;;;10.55;100.00;99260.45;2008952;71;33377;-73
2022/02/13 20:17:01;;;;;;;50.23;46.13;;;;;;;10.53;100.00;99257.98;2008840;71;32915;-73
2022/02/13 20:22:45;;;;;;;48.73;45.13;;;;;;;10.58;100.00;99252.84;2014169;71;32837;-74
2022/02/13 20:28:30;;;;;;;47.40;43.40;;;;;;;10.51;100.00;99246.40;2016036;71;33372;-74
2022/02/13 20:34:14;;;;;;;47.97;43.53;;;;;;;10.52;100.00;99248.04;2003746;71;33281;-74
2022/02/13 20:39:58;;;;;;;48.73;44.37;;;;;;;10.52;100.00;99243.88;2014162;71;33328;-74
2022/02/13 20:45:43;;;;;;;47.40;43.60;;;;;;;10.56;100.00;99239.31;1940485;74;33677;-74
2022/02/13 20:51:27;;;;;;;47.30;43.23;;;;;;;10.53;100.00;99233.56;2011025;71;33016;-73
2022/02/13 20:57:12;;;;;;;48.43;44.40;;;;;;;10.52;100.00;99226.40;2007578;70;33424;-74
2022/02/13 21:02:58;;;;;;;51.23;47.13;;;;;;;10.58;100.00;99218.97;2008952;71;32938;-74
2022/02/13 21:08:40;;;;;;;54.33;50.10;;;;;;;10.55;100.00;99216.84;2008431;71;32830;-73
2022/02/13 21:14:26;;;;;;;52.03;47.93;;;;;;;10.60;100.00;99217.27;2008699;71;32826;-74
2022/02/13 21:20:15;;;;;;;51.83;47.83;;;;;;;10.63;100.00;99224.94;2017882;71;32881;-73
2022/02/13 21:26:00;;;;;;;45.10;41.50;;;;;;;10.55;100.00;99216.03;2010321;71;32837;-73
2022/02/13 21:31:44;;;;;;;46.40;42.60;;;;;;;10.59;100.00;99206.73;2008901;71;33338;-74
2022/02/13 21:37:28;;;;;;;54.53;50.73;;;;;;;10.61;100.00;99205.02;2001932;71;32760;-74
2022/02/13 21:43:12;;;;;;;57.97;53.47;;;;;;;10.55;100.00;99202.97;2017745;71;32900;-73
2022/02/13 21:48:57;;;;;;;54.33;50.20;;;;;;;10.50;100.00;99180.91;2012508;71;33353;-74
2022/02/13 21:54:41;;;;;;;49.33;45.10;;;;;;;10.60;100.00;99197.26;1990604;71;32977;-74
2022/02/13 22:00:27;;;;;;;49.80;45.70;;;;;;;10.52;100.00;99199.46;2014084;71;33275;-74
2022/02/13 22:06:13;;;;;;;50.93;46.73;;;;;;;10.49;100.00;99187.03;1990805;71;33484;-74
2022/02/13 22:11:57;;;;;;;43.70;40.30;;;;;;;10.52;100.00;99184.77;2012187;71;32841;-74
2022/02/13 22:17:42;;;;;;;44.80;41.40;;;;;;;10.53;100.00;99182.20;2012247;71;32910;-73
2022/02/13 22:23:27;;;;;;;43.00;39.60;;;;;;;10.45;100.00;99169.39;2012328;71;32824;-75
2022/02/13 22:29:11;;;;;;;46.33;42.83;;;;;;;10.42;100.00;99174.22;2016175;71;32946;-74
2022/02/13 22:34:56;;;;;;;45.80;42.20;;;;;;;10.44;100.00;99169.14;2007076;71;33021;-74
2022/02/13 22:40:40;;;;;;;45.20;41.90;;;;;;;10.35;100.00;99160.59;1994504;71;32780;-74
2022/02/13 22:46:24;;;;;;;43.33;39.60;;;;;;;10.34;100.00;99162.54;2012566;71;32980;-74
2022/02/13 22:52:09;;;;;;;44.97;41.47;;;;;;;10.32;100.00;99149.55;2012520;71;33295;-74
2022/02/13 22:57:53;;;;;;;45.20;41.90;;;;;;;10.31;100.00;99150.68;2000006;71;32794;-73
2022/02/13 23:05:01;;;;;;;46.47;43.17;;;;;;;10.26;100.00;99148.66;2015837;71;32850;-74
2022/02/13 23:15:29;;;;;;;46.23;42.87;;;;;;;10.24;100.00;99152.31;2012506;71;32975;-74
2022/02/13 23:21:14;;;;;;;46.17;42.80;;;;;;;10.15;100.00;99152.30;2015994;71;33336;-74
2022/02/13 23:26:58;;;;;;;45.37;42.03;;;;;;;10.16;100.00;99151.16;1999440;71;32915;-75
2022/02/13 23:32:42;;;;;;;45.50;42.07;;;;;;;10.16;100.00;99144.80;2000056;71;32773;-74
2022/02/13 23:38:27;;;;;;;47.20;43.80;;;;;;;10.14;100.00;99127.05;2012512;71;33374;-73
2022/02/13 23:44:12;;;;;;;43.03;39.73;;;;;;;10.14;100.00;99129.03;1994247;71;33320;-73
2022/02/13 23:49:57;;;;;;;80.67;73.47;;;;;;;10.10;100.00;99128.05;1997914;71;32983;-75
2022/02/13 23:55:42;;;;;;;54.63;50.30;;;;;;;10.09;100.00;99130.00;2015879;71;32920;-74
